Terminal Aerodrome Forecast
Issued by NWS

Home | Current Version | Previous Version | Text Only | Print | Product List | Glossary On
Versions: 1 2 3 4 5 6 7 8 9 10 11 12 13 14 15 16 17 18
538
FTUS41 KBTV 231129
TAFMSS
TAF
KMSS 231129Z 2312/2412 07011KT P6SM -FZRA SCT004 OVC040
      TEMPO 2312/2314 3SM -FZRA BR OVC004
     FM231500 08008KT 4SM -RA BR OVC020
     FM231900 16006KT P6SM VCSH OVC020
     FM240000 23012KT P6SM VCSH OVC015
     FM240700 28013G23KT P6SM VCSH OVC020=

USA.gov is the U.S. government's official web portal to all federal, state and local government web resources and services.